sensor_id;sensor_type;location;lat;lon;timestamp;pressure;altitude;pressure_sealevel;temperature;humidity
18918;BME280;9591;52.742;13.650;2023-06-14T00:02:07;101303.16;;;13.72;99.59
18918;BME280;9591;52.742;13.650;2023-06-14T00:04:54;101308.38;;;13.75;99.29
18918;BME280;9591;52.742;13.650;2023-06-14T00:07:41;101321.78;;;13.72;99.58
18918;BME280;9591;52.742;13.650;2023-06-14T00:10:30;101323.03;;;13.62;99.95
18918;BME280;9591;52.742;13.650;2023-06-14T00:13:17;101323.31;;;13.55;100.00
18918;BME280;9591;52.742;13.650;2023-06-14T00:16:04;101322.53;;;13.51;100.00
18918;BME280;9591;52.742;13.650;2023-06-14T00:18:51;101326.25;;;13.47;100.00
18918;BME280;9591;52.742;13.650;2023-06-14T00:21:38;101323.56;;;13.47;100.00
18918;BME280;9591;52.742;13.650;2023-06-14T00:24:25;101321.63;;;13.52;100.00
18918;BME280;9591;52.742;13.650;2023-06-14T00:27:14;101322.91;;;13.40;100.00
18918;BME280;9591;52.742;13.650;2023-06-14T00:30:00;101323.88;;;13.38;100.00
18918;BME280;9591;52.742;13.650;2023-06-14T00:32:47;101323.88;;;13.38;100.00
18918;BME280;9591;52.742;13.650;2023-06-14T00:35:35;101328.28;;;13.39;100.00
18918;BME280;9591;52.742;13.650;2023-06-14T00:38:22;101325.41;;;13.45;100.00
18918;BME280;9591;52.742;13.650;2023-06-14T00:41:09;101323.47;;;13.50;100.00
18918;BME280;9591;52.742;13.650;2023-06-14T00:43:58;101331.16;;;13.33;100.00
18918;BME280;9591;52.742;13.650;2023-06-14T00:46:46;101330.28;;;13.32;100.00
18918;BME280;9591;52.742;13.650;2023-06-14T00:49:34;101325.22;;;13.25;100.00
18918;BME280;9591;52.742;13.650;2023-06-14T00:52:23;101329.94;;;13.17;100.00
18918;BME280;9591;52.742;13.650;2023-06-14T00:55:11;101329.47;;;13.02;100.00
18918;BME280;9591;52.742;13.650;2023-06-14T00:57:58;101327.56;;;12.81;100.00
18918;BME280;9591;52.742;13.650;2023-06-14T01:00:47;101333.75;;;12.82;100.00
18918;BME280;9591;52.742;13.650;2023-06-14T01:03:34;101329.72;;;12.96;100.00
18918;BME280;9591;52.742;13.650;2023-06-14T01:06:26;101334.16;;;12.96;100.00
18918;BME280;9591;52.742;13.650;2023-06-14T01:09:25;101337.03;;;12.90;100.00
18918;BME280;9591;52.742;13.650;2023-06-14T01:12:21;101329.25;;;12.84;100.00
18918;BME280;9591;52.742;13.650;2023-06-14T01:15:12;101336.53;;;12.77;100.00
18918;BME280;9591;52.742;13.650;2023-06-14T01:18:01;101344.75;;;12.69;100.00
18918;BME280;9591;52.742;13.650;2023-06-14T01:20:49;101344.81;;;12.68;100.00
18918;BME280;9591;52.742;13.650;2023-06-14T01:23:44;101338.66;;;12.66;100.00
18918;BME280;9591;52.742;13.650;2023-06-14T01:26:31;101344.03;;;12.64;100.00
18918;BME280;9591;52.742;13.650;2023-06-14T01:29:18;101342.53;;;12.84;100.00
18918;BME280;9591;52.742;13.650;2023-06-14T01:32:06;101338.53;;;12.70;100.00
18918;BME280;9591;52.742;13.650;2023-06-14T01:34:53;101340.59;;;12.61;100.00
18918;BME280;9591;52.742;13.650;2023-06-14T01:37:40;101345.28;;;12.53;100.00
18918;BME280;9591;52.742;13.650;2023-06-14T01:40:30;101338.13;;;12.55;100.00
18918;BME280;9591;52.742;13.650;2023-06-14T01:43:18;101333.72;;;12.54;100.00
18918;BME280;9591;52.742;13.650;2023-06-14T01:46:06;101331.97;;;12.53;100.00
18918;BME280;9591;52.742;13.650;2023-06-14T01:48:54;101333.72;;;12.54;100.00
18918;BME280;9591;52.742;13.650;2023-06-14T01:51:41;101331.91;;;12.56;100.00
18918;BME280;9591;52.742;13.650;2023-06-14T01:54:28;101324.34;;;12.42;100.00
18918;BME280;9591;52.742;13.650;2023-06-14T01:57:17;101329.56;;;12.45;100.00
18918;BME280;9591;52.742;13.650;2023-06-14T02:00:05;101332.09;;;12.50;100.00
18918;BME280;9591;52.742;13.650;2023-06-14T02:02:58;101328.69;;;12.44;100.00
18918;BME280;9591;52.742;13.650;2023-06-14T02:05:45;101326.03;;;12.44;100.00
18918;BME280;9591;52.742;13.650;2023-06-14T02:08:31;101329.47;;;12.48;100.00
18918;BME280;9591;52.742;13.650;2023-06-14T02:11:18;101319.91;;;12.42;100.00
18918;BME280;9591;52.742;13.650;2023-06-14T02:14:07;101327.88;;;12.42;100.00
18918;BME280;9591;52.742;13.650;2023-06-14T02:16:57;101332.31;;;12.42;100.00
18918;BME280;9591;52.742;13.650;2023-06-14T02:19:44;101323.66;;;12.35;100.00
18918;BME280;9591;52.742;13.650;2023-06-14T02:22:31;101325.63;;;12.29;100.00
18918;BME280;9591;52.742;13.650;2023-06-14T02:25:18;101325.03;;;12.19;100.00
18918;BME280;9591;52.742;13.650;2023-06-14T02:28:05;101323.31;;;12.17;100.00
18918;BME280;9591;52.742;13.650;2023-06-14T02:30:53;101323.50;;;12.12;100.00
18918;BME280;9591;52.742;13.650;2023-06-14T02:33:41;101331.47;;;12.12;100.00
18918;BME280;9591;52.742;13.650;2023-06-14T02:36:27;101328.81;;;12.12;100.00
18918;BME280;9591;52.742;13.650;2023-06-14T02:39:18;101336.22;;;12.01;100.00
18918;BME280;9591;52.742;13.650;2023-06-14T02:42:07;101328.56;;;11.90;100.00
18918;BME280;9591;52.742;13.650;2023-06-14T02:44:53;101334.16;;;11.79;100.00
18918;BME280;9591;52.742;13.650;2023-06-14T02:47:41;101332.78;;;11.63;100.00
18918;BME280;9591;52.742;13.650;2023-06-14T02:50:30;101334.69;;;11.58;100.00
18918;BME280;9591;52.742;13.650;2023-06-14T02:53:17;101334.81;;;11.54;100.00
18918;BME280;9591;52.742;13.650;2023-06-14T02:56:05;101338.38;;;11.53;100.00
18918;BME280;9591;52.742;13.650;2023-06-14T02:58:51;101327.84;;;11.49;100.00
18918;BME280;9591;52.742;13.650;2023-06-14T03:01:39;101330.94;;;11.67;100.00
18918;BME280;9591;52.742;13.650;2023-06-14T03:04:31;101331.59;;;11.75;100.00
18918;BME280;9591;52.742;13.650;2023-06-14T03:07:28;101341.28;;;11.77;100.00
18918;BME280;9591;52.742;13.650;2023-06-14T03:10:16;101335.16;;;11.74;100.00
18918;BME280;9591;52.742;13.650;2023-06-14T03:13:03;101326.28;;;11.75;100.00
18918;BME280;9591;52.742;13.650;2023-06-14T03:15:50;101328.75;;;11.82;100.00
18918;BME280;9591;52.742;13.650;2023-06-14T03:18:39;101328.34;;;11.98;100.00
18918;BME280;9591;52.742;13.650;2023-06-14T03:21:27;101327.25;;;12.05;100.00
18918;BME280;9591;52.742;13.650;2023-06-14T03:24:17;101333.69;;;11.96;100.00
18918;BME280;9591;52.742;13.650;2023-06-14T03:27:05;101331.13;;;11.93;100.00
18918;BME280;9591;52.742;13.650;2023-06-14T03:29:51;101334.59;;;11.95;100.00
18918;BME280;9591;52.742;13.650;2023-06-14T03:32:38;101329.34;;;12.23;100.00
18918;BME280;9591;52.742;13.650;2023-06-14T03:35:26;101337.53;;;12.45;100.00
18918;BME280;9591;52.742;13.650;2023-06-14T03:38:14;101342.38;;;12.31;100.00
18918;BME280;9591;52.742;13.650;2023-06-14T03:41:01;101343.06;;;12.37;100.00
18918;BME280;9591;52.742;13.650;2023-06-14T03:43:50;101340.16;;;12.46;100.00
18918;BME280;9591;52.742;13.650;2023-06-14T03:46:37;101342.66;;;12.51;100.00
18918;BME280;9591;52.742;13.650;2023-06-14T03:49:24;101350.22;;;12.65;100.00
18918;BME280;9591;52.742;13.650;2023-06-14T03:52:11;101347.06;;;12.80;100.00
18918;BME280;9591;52.742;13.650;2023-06-14T03:55:03;101358.63;;;12.79;100.00
18918;BME280;9591;52.742;13.650;2023-06-14T03:57:52;101353.75;;;12.93;100.00
18918;BME280;9591;52.742;13.650;2023-06-14T04:00:39;101360.53;;;13.02;100.00
18918;BME280;9591;52.742;13.650;2023-06-14T04:03:26;101362.75;;;13.16;100.00
18918;BME280;9591;52.742;13.650;2023-06-14T04:06:16;101369.28;;;13.33;100.00
18918;BME280;9591;52.742;13.650;2023-06-14T04:09:06;101375.66;;;13.28;100.00
18918;BME280;9591;52.742;13.650;2023-06-14T04:11:55;101354.94;;;13.37;100.00
18918;BME280;9591;52.742;13.650;2023-06-14T04:14:42;101368.19;;;13.65;100.00
18918;BME280;9591;52.742;13.650;2023-06-14T04:17:30;101369.28;;;13.85;100.00
18918;BME280;9591;52.742;13.650;2023-06-14T04:20:19;101364.78;;;14.33;100.00
18918;BME280;9591;52.742;13.650;2023-06-14T04:23:14;101373.22;;;14.69;100.00
18918;BME280;9591;52.742;13.650;2023-06-14T04:26:00;101361.16;;;14.81;100.00
18918;BME280;9591;52.742;13.650;2023-06-14T04:28:49;101372.44;;;15.31;100.00
18918;BME280;9591;52.742;13.650;2023-06-14T04:31:36;101360.94;;;15.71;99.89
18918;BME280;9591;52.742;13.650;2023-06-14T04:34:26;101362.94;;;15.87;97.23
18918;BME280;9591;52.742;13.650;2023-06-14T04:37:15;101362.94;;;15.66;100.00
18918;BME280;9591;52.742;13.650;2023-06-14T04:40:04;101362.47;;;15.97;98.64
18918;BME280;9591;52.742;13.650;2023-06-14T04:42:57;101364.94;;;16.02;99.49
18918;BME280;9591;52.742;13.650;2023-06-14T04:45:45;101365.47;;;15.90;98.69
18918;BME280;9591;52.742;13.650;2023-06-14T04:48:32;101365.94;;;15.99;96.92
18918;BME280;9591;52.742;13.650;2023-06-14T04:51:20;101369.47;;;16.00;98.25
18918;BME280;9591;52.742;13.650;2023-06-14T04:54:15;101369.81;;;15.92;98.58
18918;BME280;9591;52.742;13.650;2023-06-14T04:57:04;101365.09;;;15.79;100.00
18918;BME280;9591;52.742;13.650;2023-06-14T04:59:51;101374.97;;;15.77;100.00
18918;BME280;9591;52.742;13.650;2023-06-14T05:02:43;101373.56;;;15.88;99.74
18918;BME280;9591;52.742;13.650;2023-06-14T05:05:33;101371.56;;;15.93;99.44
18918;BME280;9591;52.742;13.650;2023-06-14T05:08:20;101371.69;;;15.90;100.00
18918;BME280;9591;52.742;13.650;2023-06-14T05:11:09;101369.34;;;15.83;100.00
18918;BME280;9591;52.742;13.650;2023-06-14T05:13:56;101376.56;;;15.81;100.00
18918;BME280;9591;52.742;13.650;2023-06-14T05:16:44;101387.25;;;15.81;100.00
18918;BME280;9591;52.742;13.650;2023-06-14T05:19:33;101374.50;;;15.87;100.00
18918;BME280;9591;52.742;13.650;2023-06-14T05:22:19;101381.25;;;15.96;100.00
18918;BME280;9591;52.742;13.650;2023-06-14T05:25:07;101383.91;;;15.96;100.00
18918;BME280;9591;52.742;13.650;2023-06-14T05:27:53;101385.38;;;16.03;100.00
18918;BME280;9591;52.742;13.650;2023-06-14T05:30:40;101386.50;;;15.97;100.00
18918;BME280;9591;52.742;13.650;2023-06-14T05:33:27;101386.91;;;16.09;100.00
18918;BME280;9591;52.742;13.650;2023-06-14T05:36:15;101394.09;;;16.27;100.00
18918;BME280;9591;52.742;13.650;2023-06-14T05:39:02;101388.28;;;16.37;100.00
18918;BME280;9591;52.742;13.650;2023-06-14T05:41:49;101390.84;;;16.58;100.00
18918;BME280;9591;52.742;13.650;2023-06-14T05:44:36;101391.41;;;16.66;100.00
18918;BME280;9591;52.742;13.650;2023-06-14T05:47:23;101377.59;;;16.75;100.00
18918;BME280;9591;52.742;13.650;2023-06-14T05:50:11;101386.84;;;16.87;100.00
18918;BME280;9591;52.742;13.650;2023-06-14T05:52:59;101393.25;;;17.01;100.00
18918;BME280;9591;52.742;13.650;2023-06-14T05:55:46;101395.56;;;17.09;99.69
18918;BME280;9591;52.742;13.650;2023-06-14T05:58:33;101397.56;;;17.23;100.00
18918;BME280;9591;52.742;13.650;2023-06-14T06:01:19;101395.91;;;17.37;99.95
18918;BME280;9591;52.742;13.650;2023-06-14T06:04:06;101402.06;;;17.40;98.64
18918;BME280;9591;52.742;13.650;2023-06-14T06:06:53;101394.09;;;17.38;99.81
18918;BME280;9591;52.742;13.650;2023-06-14T06:09:41;101401.78;;;17.63;98.49
18918;BME280;9591;52.742;13.650;2023-06-14T06:12:28;101399.00;;;17.64;97.86
18918;BME280;9591;52.742;13.650;2023-06-14T06:15:14;101398.09;;;17.65;94.35
18918;BME280;9591;52.742;13.650;2023-06-14T06:18:02;101396.44;;;17.80;95.55
18918;BME280;9591;52.742;13.650;2023-06-14T06:20:49;101398.88;;;18.02;95.07
18918;BME280;9591;52.742;13.650;2023-06-14T06:23:36;101399.59;;;18.06;94.40
18918;BME280;9591;52.742;13.650;2023-06-14T06:26:24;101402.03;;;18.10;93.74
18918;BME280;9591;52.742;13.650;2023-06-14T06:29:12;101406.19;;;18.16;91.62
18918;BME280;9591;52.742;13.650;2023-06-14T06:31:59;101401.25;;;18.24;92.27
18918;BME280;9591;52.742;13.650;2023-06-14T06:34:46;101400.38;;;18.23;90.89
18918;BME280;9591;52.742;13.650;2023-06-14T06:37:32;101399.16;;;18.46;89.92
18918;BME280;9591;52.742;13.650;2023-06-14T06:40:19;101403.06;;;18.56;90.35
18918;BME280;9591;52.742;13.650;2023-06-14T06:43:07;101392.81;;;18.31;89.44
18918;BME280;9591;52.742;13.650;2023-06-14T06:45:59;101392.31;;;18.41;89.01
18918;BME280;9591;52.742;13.650;2023-06-14T06:48:46;101391.59;;;18.37;88.36
18918;BME280;9591;52.742;13.650;2023-06-14T06:51:35;101395.03;;;18.56;88.92
18918;BME280;9591;52.742;13.650;2023-06-14T06:54:21;101394.72;;;18.62;88.35
18918;BME280;9591;52.742;13.650;2023-06-14T06:57:08;101387.09;;;18.71;87.13
18918;BME280;9591;52.742;13.650;2023-06-14T06:59:57;101390.94;;;18.98;84.31
18918;BME280;9591;52.742;13.650;2023-06-14T07:02:44;101398.63;;;19.04;83.59
18918;BME280;9591;52.742;13.650;2023-06-14T07:05:31;101401.63;;;19.14;81.16
18918;BME280;9591;52.742;13.650;2023-06-14T07:08:18;101400.16;;;19.24;83.64
18918;BME280;9591;52.742;13.650;2023-06-14T07:11:05;101401.53;;;19.31;83.41
18918;BME280;9591;52.742;13.650;2023-06-14T07:13:52;101412.69;;;19.39;80.52
18918;BME280;9591;52.742;13.650;2023-06-14T07:16:40;101407.22;;;19.41;80.36
18918;BME280;9591;52.742;13.650;2023-06-14T07:19:28;101412.78;;;19.38;78.54
18918;BME280;9591;52.742;13.650;2023-06-14T07:22:16;101407.22;;;19.41;79.62
18918;BME280;9591;52.742;13.650;2023-06-14T07:25:02;101410.31;;;19.64;80.23
18918;BME280;9591;52.742;13.650;2023-06-14T07:27:49;101415.88;;;20.06;78.14
18918;BME280;9591;52.742;13.650;2023-06-14T07:30:36;101422.31;;;20.17;75.82
18918;BME280;9591;52.742;13.650;2023-06-14T07:33:24;101411.97;;;20.25;75.37
18918;BME280;9591;52.742;13.650;2023-06-14T07:36:11;101409.66;;;20.19;74.35
18918;BME280;9591;52.742;13.650;2023-06-14T07:38:58;101411.66;;;20.16;75.51
18918;BME280;9591;52.742;13.650;2023-06-14T07:41:45;101415.91;;;20.20;75.74
18918;BME280;9591;52.742;13.650;2023-06-14T07:44:32;101418.03;;;20.29;74.01
18918;BME280;9591;52.742;13.650;2023-06-14T07:47:19;101416.25;;;20.44;72.84
18918;BME280;9591;52.742;13.650;2023-06-14T07:50:08;101418.44;;;20.66;72.36
18918;BME280;9591;52.742;13.650;2023-06-14T07:52:56;101422.97;;;20.51;72.16
18918;BME280;9591;52.742;13.650;2023-06-14T07:55:43;101427.84;;;20.73;69.44
18918;BME280;9591;52.742;13.650;2023-06-14T07:58:38;101431.38;;;20.87;69.94
18918;BME280;9591;52.742;13.650;2023-06-14T08:01:24;101418.75;;;21.02;70.37
18918;BME280;9591;52.742;13.650;2023-06-14T08:04:13;101420.53;;;21.16;70.19
18918;BME280;9591;52.742;13.650;2023-06-14T08:07:01;101416.09;;;21.29;68.25
18918;BME280;9591;52.742;13.650;2023-06-14T08:09:52;101415.41;;;21.40;67.63
18918;BME280;9591;52.742;13.650;2023-06-14T08:12:39;101415.19;;;21.43;67.81
18918;BME280;9591;52.742;13.650;2023-06-14T08:15:26;101419.31;;;21.48;69.09
18918;BME280;9591;52.742;13.650;2023-06-14T08:18:13;101418.03;;;21.54;66.48
18918;BME280;9591;52.742;13.650;2023-06-14T08:21:00;101418.59;;;21.72;66.94
18918;BME280;9591;52.742;13.650;2023-06-14T08:23:49;101414.72;;;21.63;66.93
18918;BME280;9591;52.742;13.650;2023-06-14T08:26:38;101414.47;;;21.53;67.39
18918;BME280;9591;52.742;13.650;2023-06-14T08:29:25;101408.53;;;21.48;65.76
18918;BME280;9591;52.742;13.650;2023-06-14T08:32:15;101417.38;;;21.50;66.64
18918;BME280;9591;52.742;13.650;2023-06-14T08:35:02;101412.50;;;21.43;65.09
18918;BME280;9591;52.742;13.650;2023-06-14T08:37:50;101407.00;;;21.44;66.43
18918;BME280;9591;52.742;13.650;2023-06-14T08:40:40;101410.72;;;21.56;64.63
18918;BME280;9591;52.742;13.650;2023-06-14T08:43:27;101398.41;;;21.52;66.29
18918;BME280;9591;52.742;13.650;2023-06-14T08:46:17;101394.59;;;21.42;66.14
18918;BME280;9591;52.742;13.650;2023-06-14T08:49:05;101385.81;;;21.52;66.54
18918;BME280;9591;52.742;13.650;2023-06-14T08:51:57;101396.06;;;21.60;64.36
18918;BME280;9591;52.742;13.650;2023-06-14T08:54:45;101387.22;;;21.58;65.81
18918;BME280;9591;52.742;13.650;2023-06-14T08:57:36;101392.53;;;21.85;64.56
18918;BME280;9591;52.742;13.650;2023-06-14T09:00:24;101405.66;;;21.77;64.74
18918;BME280;9591;52.742;13.650;2023-06-14T09:03:10;101402.47;;;21.97;62.72
18918;BME280;9591;52.742;13.650;2023-06-14T09:05:59;101406.19;;;22.21;62.06
18918;BME280;9591;52.742;13.650;2023-06-14T09:08:46;101416.66;;;22.26;60.97
18918;BME280;9591;52.742;13.650;2023-06-14T09:11:35;101412.00;;;22.41;60.26
18918;BME280;9591;52.742;13.650;2023-06-14T09:14:23;101407.22;;;22.57;59.30
18918;BME280;9591;52.742;13.650;2023-06-14T09:17:13;101412.59;;;22.57;58.23
18918;BME280;9591;52.742;13.650;2023-06-14T09:20:00;101416.81;;;22.61;55.53
18918;BME280;9591;52.742;13.650;2023-06-14T09:22:49;101420.25;;;22.76;56.96
18918;BME280;9591;52.742;13.650;2023-06-14T09:25:41;101414.00;;;22.75;57.81
18918;BME280;9591;52.742;13.650;2023-06-14T09:28:29;101420.38;;;22.87;57.53
18918;BME280;9591;52.742;13.650;2023-06-14T09:31:19;101360.47;;;22.56;55.25
18918;BME280;9591;52.742;13.650;2023-06-14T09:34:07;101417.88;;;22.97;53.31
18918;BME280;9591;52.742;13.650;2023-06-14T09:36:55;101422.44;;;22.83;53.32
18918;BME280;9591;52.742;13.650;2023-06-14T09:39:49;101425.78;;;22.62;55.10
18918;BME280;9591;52.742;13.650;2023-06-14T09:42:37;101424.63;;;22.53;53.54
18918;BME280;9591;52.742;13.650;2023-06-14T09:45:25;101423.56;;;22.43;54.53
18918;BME280;9591;52.742;13.650;2023-06-14T09:48:16;101424.09;;;22.48;52.00
18918;BME280;9591;52.742;13.650;2023-06-14T09:51:05;101421.50;;;22.34;53.12
18918;BME280;9591;52.742;13.650;2023-06-14T09:53:53;101399.16;;;22.32;53.65
18918;BME280;9591;52.742;13.650;2023-06-14T09:56:45;101416.31;;;22.43;54.46
18918;BME280;9591;52.742;13.650;2023-06-14T09:59:33;101413.16;;;22.62;52.61
18918;BME280;9591;52.742;13.650;2023-06-14T10:02:24;101420.13;;;22.77;52.97
18918;BME280;9591;52.742;13.650;2023-06-14T10:05:15;101414.56;;;22.80;52.61
18918;BME280;9591;52.742;13.650;2023-06-14T10:08:05;101421.00;;;22.91;51.74
18918;BME280;9591;52.742;13.650;2023-06-14T10:10:55;101409.41;;;23.01;50.78
18918;BME280;9591;52.742;13.650;2023-06-14T10:13:42;101407.25;;;23.30;49.11
18918;BME280;9591;52.742;13.650;2023-06-14T10:16:32;101407.56;;;23.49;48.94
18918;BME280;9591;52.742;13.650;2023-06-14T10:19:22;101398.91;;;23.57;47.96
18918;BME280;9591;52.742;13.650;2023-06-14T10:22:14;101407.34;;;23.52;46.31
18918;BME280;9591;52.742;13.650;2023-06-14T10:25:07;101393.44;;;23.70;47.25
18918;BME280;9591;52.742;13.650;2023-06-14T10:28:14;101397.94;;;23.93;47.20
18918;BME280;9591;52.742;13.650;2023-06-14T10:31:03;101397.66;;;23.85;48.00
18918;BME280;9591;52.742;13.650;2023-06-14T10:33:56;101389.69;;;23.95;47.46
18918;BME280;9591;52.742;13.650;2023-06-14T10:36:43;101386.63;;;23.99;45.56
18918;BME280;9591;52.742;13.650;2023-06-14T10:39:32;101373.72;;;24.03;45.98
18918;BME280;9591;52.742;13.650;2023-06-14T10:42:19;101379.78;;;24.17;45.54
18918;BME280;9591;52.742;13.650;2023-06-14T10:45:12;101378.16;;;24.15;44.63
18918;BME280;9591;52.742;13.650;2023-06-14T10:48:00;101375.13;;;24.31;46.27
18918;BME280;9591;52.742;13.650;2023-06-14T10:50:48;101376.34;;;24.49;45.85
18918;BME280;9591;52.742;13.650;2023-06-14T10:53:40;101371.66;;;24.62;44.36
18918;BME280;9591;52.742;13.650;2023-06-14T10:56:29;101367.09;;;24.74;44.76
18918;BME280;9591;52.742;13.650;2023-06-14T10:59:16;101366.25;;;24.73;42.04
18918;BME280;9591;52.742;13.650;2023-06-14T11:02:34;101356.63;;;24.80;44.60
18918;BME280;9591;52.742;13.650;2023-06-14T11:05:48;101348.88;;;24.76;43.53
18918;BME280;9591;52.742;13.650;2023-06-14T11:12:07;101349.47;;;24.91;42.92
18918;BME280;9591;52.742;13.650;2023-06-14T11:14:56;101351.22;;;24.69;39.74
18918;BME280;9591;52.742;13.650;2023-06-14T11:17:50;101339.91;;;24.64;40.87
18918;BME280;9591;52.742;13.650;2023-06-14T11:20:39;101340.75;;;24.76;42.43
18918;BME280;9591;52.742;13.650;2023-06-14T11:23:26;101332.13;;;24.82;41.84
18918;BME280;9591;52.742;13.650;2023-06-14T11:26:13;101330.75;;;24.88;42.02
18918;BME280;9591;52.742;13.650;2023-06-14T11:29:01;101328.41;;;24.94;42.97
18918;BME280;9591;52.742;13.650;2023-06-14T11:31:48;101337.28;;;24.96;41.16
18918;BME280;9591;52.742;13.650;2023-06-14T11:34:35;101332.59;;;24.98;40.44
18918;BME280;9591;52.742;13.650;2023-06-14T11:37:26;101316.50;;;24.74;41.07
18918;BME280;9591;52.742;13.650;2023-06-14T11:40:17;101324.16;;;24.69;42.02
18918;BME280;9591;52.742;13.650;2023-06-14T11:43:05;101320.94;;;24.75;40.58
18918;BME280;9591;52.742;13.650;2023-06-14T11:45:56;101313.00;;;24.95;39.93
18918;BME280;9591;52.742;13.650;2023-06-14T11:48:53;101315.00;;;24.81;40.26
18918;BME280;9591;52.742;13.650;2023-06-14T11:51:42;101302.56;;;24.90;39.41
18918;BME280;9591;52.742;13.650;2023-06-14T11:54:29;101303.88;;;24.96;39.71
18918;BME280;9591;52.742;13.650;2023-06-14T11:57:17;101300.09;;;25.19;37.46
18918;BME280;9591;52.742;13.650;2023-06-14T12:00:06;101294.38;;;25.33;38.37
18918;BME280;9591;52.742;13.650;2023-06-14T12:02:58;101286.22;;;25.65;37.85
18918;BME280;9591;52.742;13.650;2023-06-14T12:05:45;101278.41;;;25.72;36.36
18918;BME280;9591;52.742;13.650;2023-06-14T12:08:33;101281.50;;;25.88;36.78
18918;BME280;9591;52.742;13.650;2023-06-14T12:11:31;101283.53;;;25.96;35.05
18918;BME280;9591;52.742;13.650;2023-06-14T12:14:18;101284.59;;;26.14;35.02
18918;BME280;9591;52.742;13.650;2023-06-14T12:17:08;101254.59;;;26.16;35.94
18918;BME280;9591;52.742;13.650;2023-06-14T12:19:56;101280.63;;;26.28;34.41
18918;BME280;9591;52.742;13.650;2023-06-14T12:22:52;101267.38;;;25.94;35.49
18918;BME280;9591;52.742;13.650;2023-06-14T12:25:39;101275.25;;;25.97;35.96
18918;BME280;9591;52.742;13.650;2023-06-14T12:28:31;101270.19;;;26.23;36.29
18918;BME280;9591;52.742;13.650;2023-06-14T12:31:18;101257.34;;;26.25;35.31
18918;BME280;9591;52.742;13.650;2023-06-14T12:34:05;101248.13;;;26.37;34.14
18918;BME280;9591;52.742;13.650;2023-06-14T12:36:53;101245.44;;;26.47;35.22
18918;BME280;9591;52.742;13.650;2023-06-14T12:39:40;101253.16;;;26.42;34.37
18918;BME280;9591;52.742;13.650;2023-06-14T12:42:27;101245.34;;;26.77;34.14
18918;BME280;9591;52.742;13.650;2023-06-14T12:45:14;101247.34;;;26.85;33.17
18918;BME280;9591;52.742;13.650;2023-06-14T12:48:01;101254.09;;;27.10;33.80
18918;BME280;9591;52.742;13.650;2023-06-14T12:50:48;101256.09;;;27.08;32.75
18918;BME280;9591;52.742;13.650;2023-06-14T12:53:36;101254.22;;;27.28;33.64
18918;BME280;9591;52.742;13.650;2023-06-14T12:56:23;101252.94;;;27.22;32.05
18918;BME280;9591;52.742;13.650;2023-06-14T12:59:11;101248.78;;;27.08;33.05
18918;BME280;9591;52.742;13.650;2023-06-14T13:01:59;101247.22;;;26.96;33.02
18918;BME280;9591;52.742;13.650;2023-06-14T13:04:46;101239.47;;;26.92;33.58
18918;BME280;9591;52.742;13.650;2023-06-14T13:07:33;101241.47;;;26.61;34.41
18918;BME280;9591;52.742;13.650;2023-06-14T13:10:21;101243.34;;;26.30;34.56
18918;BME280;9591;52.742;13.650;2023-06-14T13:13:08;101242.50;;;26.29;33.98
18918;BME280;9591;52.742;13.650;2023-06-14T13:15:56;101249.72;;;26.00;34.63
18918;BME280;9591;52.742;13.650;2023-06-14T13:18:43;101254.97;;;25.71;36.94
18918;BME280;9591;52.742;13.650;2023-06-14T13:21:30;101260.38;;;25.50;36.43
18918;BME280;9591;52.742;13.650;2023-06-14T13:24:17;101256.88;;;25.38;37.17
18918;BME280;9591;52.742;13.650;2023-06-14T13:27:05;101252.72;;;25.34;37.58
18918;BME280;9591;52.742;13.650;2023-06-14T13:29:52;101246.38;;;25.24;38.32
18918;BME280;9591;52.742;13.650;2023-06-14T13:32:39;101243.78;;;25.23;37.83
18918;BME280;9591;52.742;13.650;2023-06-14T13:35:26;101248.03;;;25.36;40.30
18918;BME280;9591;52.742;13.650;2023-06-14T13:38:13;101240.19;;;25.12;40.38
18918;BME280;9591;52.742;13.650;2023-06-14T13:41:00;101233.22;;;25.20;40.20
18918;BME280;9591;52.742;13.650;2023-06-14T13:43:48;101237.84;;;25.29;40.11
18918;BME280;9591;52.742;13.650;2023-06-14T13:46:35;101239.75;;;25.17;38.90
18918;BME280;9591;52.742;13.650;2023-06-14T13:49:21;101241.34;;;24.88;40.73
18918;BME280;9591;52.742;13.650;2023-06-14T13:52:08;101235.94;;;24.88;39.36
18918;BME280;9591;52.742;13.650;2023-06-14T13:54:56;101249.59;;;24.97;40.72
18918;BME280;9591;52.742;13.650;2023-06-14T13:57:43;101235.34;;;24.84;42.34
18918;BME280;9591;52.742;13.650;2023-06-14T14:00:31;101180.97;;;24.33;41.02
18918;BME280;9591;52.742;13.650;2023-06-14T14:03:18;101241.84;;;24.49;41.51
18918;BME280;9591;52.742;13.650;2023-06-14T14:06:05;101247.53;;;24.35;42.88
18918;BME280;9591;52.742;13.650;2023-06-14T14:08:52;101243.25;;;24.22;41.90
18918;BME280;9591;52.742;13.650;2023-06-14T14:11:39;101251.59;;;24.30;41.10
18918;BME280;9591;52.742;13.650;2023-06-14T14:14:28;101242.50;;;24.19;43.34
18918;BME280;9591;52.742;13.650;2023-06-14T14:17:16;101245.59;;;24.04;43.11
18918;BME280;9591;52.742;13.650;2023-06-14T14:20:03;101251.38;;;23.88;42.66
18918;BME280;9591;52.742;13.650;2023-06-14T14:22:50;101245.72;;;23.91;41.11
18918;BME280;9591;52.742;13.650;2023-06-14T14:25:37;101239.19;;;23.82;41.41
18918;BME280;9591;52.742;13.650;2023-06-14T14:28:23;101235.25;;;23.98;42.27
18918;BME280;9591;52.742;13.650;2023-06-14T14:31:11;101239.06;;;23.95;41.79
18918;BME280;9591;52.742;13.650;2023-06-14T14:33:59;101232.44;;;23.99;41.01
18918;BME280;9591;52.742;13.650;2023-06-14T14:36:46;101239.94;;;24.18;41.89
18918;BME280;9591;52.742;13.650;2023-06-14T14:39:32;101241.50;;;24.32;41.07